Centerfield, UT

9:39 PM MDT on July 29, 2014 (GMT -0600)
APRSWXNET Manti UT US (MD2800) Elev 5612 ft | 39.27 °N, 111.64 °W | Change Station

Current weather conditions updated 42 minutes ago

Clear
Clear
62 °F
Feels Like 62 °F
N
0
Wind Variable Wind from NE
Gusts 0.0 mph

Tomorrow is forecast to be Warmer than today. Partly cloudy with a stray thunderstorm.

Today
High -- | Low -- °F
--% Chance of Precip.
Yesterday
High -- | Low -- °F
Precip. -- in
6:25 AM 8:41 PM
Waxing Crescent, 9% visible
Pressure 30.02 in
Visibility 10.0 miles
Clouds Clear
Dew Point 58 °F
Humidity 88%
Rainfall -999.00 in
Snow Depth Not available.
UV 0 out of 12
Pollen 3.90 out of 12
Air Quality Not available.
Flu Activity Not available.
METAR KPUC 300253Z AUTO 00000KT 10SM CLR 20/11 A3022 RMK AO2 SLP166 T02000111 55002

More Conditions Fewer Conditions

Pressure 30.02 in
Visibility 10.0 miles
Clouds Clear
Dew Point 58 °F
Humidity 88%
Rainfall -999.00 in
Snow Depth Not available.
UV 0 out of 12
Pollen 3.90 out of 12
Air Quality Not available.
Flu Activity Not available.
METAR KPUC 300253Z AUTO 00000KT 10SM CLR 20/11 A3022 RMK AO2 SLP166 T02000111 55002

More Conditions Fewer Conditions

10-Day Weather Forecast

Almanac

Astronomy

Jul. 29, 2014 Rise Set
Actual Time 6:25 AM MDT 8:41 PM MDT
Civil Twilight 5:55 AM MDT 9:11 PM MDT
Nautical Twilight 5:18 AM MDT 9:48 PM MDT
Astronomical Twilight 4:37 AM MDT 10:29 PM MDT
Moon 9:03 AM MDT (7/29) 9:57 PM MDT (7/29)
Length of Visible Light 15h 16m
Length of Day
14h 16m
Tomorrow will be 1m 51s shorter.
Waxing Crescent, 9% of the Moon is Illuminated
Today
Waxing Crescent
Aug 3
First Quarter
Aug 10
Full
Aug 17
Last Quarter
Aug 25
New

Today's Extremes

State Highs State Lows

Community

WunderPhotos

Upload Photos

1,738,991 photos uploaded!

WunderBlogs® & News

Nearby

Snow Depth

Station Depth Elevation
Seeley Creek 0 in 10000 ft
Black Flat-U.M. Creek 0 in 9400 ft
Red Pine Ridge 0 in 9200 ft
Box Creek 0 in 9800 ft
Clear Creek #2 0 in 8300 ft

Earthquake Activity

City Distance Mag. Time & Date
No recent earthquake activity has been reported nearby.
Minimum magnitude displayed is 2.5.

Coastal Water Temperatures

Place Temperature
No Stations Reporting

Nearby Weather Stations

Station Location Temp. Dew Point Humidity Wind Precip. Elev Updated Type
APRSWXNET Manti UT , Manti, UT 62 °F 58 °F 88% NE  at  0 mph 0.00 in / hr 5612 ft 8:57 PM MDT MADIS
RAWS SEVIER RESERVOIR UT, Scipio, UT 65 °F 60 °F 84% East  at  1 mph 0.00 in / hr 5369 ft 8:51 PM MDT MADIS
MesoWest EPHRAIM , Chester, UT 64 °F 59 °F 84% NW  at  1 mph 0.00 in / hr 5503 ft 8:00 PM MDT MADIS
RAWS FILLMORE PORT #2 UT, Scipio, UT 61 °F 57 °F 86% NE  at  3 mph 0.00 in / hr 6157 ft 8:57 PM MDT MADIS
RAWS BLACK CEDAR UT, Holden, UT 69 °F 58 °F 67% North  at  0 mph 0.00 in / hr 6493 ft 8:27 PM MDT MADIS
RAWS LOST CREEK UT, Glenwood, UT 59 °F 55 °F 87% SSW  at  4 mph 0.00 in / hr 7490 ft 8:37 PM MDT MADIS

Show More Stations Show Fewer Stations